sensor_id;sensor_type;location;lat;lon;timestamp;P1;durP1;ratioP1;P2;durP2;ratioP2
16775;SDS011;8505;49.456;8.164;2023-01-13T00:01:04;1.50;;;0.50;;
16775;SDS011;8505;49.456;8.164;2023-01-13T00:03:34;4.27;;;0.60;;
16775;SDS011;8505;49.456;8.164;2023-01-13T00:06:02;2.40;;;0.50;;
16775;SDS011;8505;49.456;8.164;2023-01-13T00:08:31;1.27;;;0.40;;
16775;SDS011;8505;49.456;8.164;2023-01-13T00:10:59;3.00;;;0.60;;
16775;SDS011;8505;49.456;8.164;2023-01-13T00:13:27;2.45;;;0.70;;
16775;SDS011;8505;49.456;8.164;2023-01-13T00:15:56;2.10;;;0.50;;
16775;SDS011;8505;49.456;8.164;2023-01-13T00:18:25;2.30;;;0.50;;
16775;SDS011;8505;49.456;8.164;2023-01-13T00:20:58;1.45;;;0.70;;
16775;SDS011;8505;49.456;8.164;2023-01-13T00:23:27;2.67;;;0.60;;
16775;SDS011;8505;49.456;8.164;2023-01-13T00:25:55;2.90;;;0.60;;
16775;SDS011;8505;49.456;8.164;2023-01-13T00:28:23;1.88;;;0.50;;
16775;SDS011;8505;49.456;8.164;2023-01-13T00:30:51;2.50;;;0.70;;
16775;SDS011;8505;49.456;8.164;2023-01-13T00:33:19;2.10;;;0.70;;
16775;SDS011;8505;49.456;8.164;2023-01-13T00:35:54;2.63;;;0.70;;
16775;SDS011;8505;49.456;8.164;2023-01-13T00:38:23;3.47;;;0.70;;
16775;SDS011;8505;49.456;8.164;2023-01-13T00:40:54;1.05;;;0.43;;
16775;SDS011;8505;49.456;8.164;2023-01-13T00:43:22;1.60;;;0.52;;
16775;SDS011;8505;49.456;8.164;2023-01-13T00:45:50;3.33;;;0.60;;
16775;SDS011;8505;49.456;8.164;2023-01-13T00:48:18;1.20;;;0.40;;
16775;SDS011;8505;49.456;8.164;2023-01-13T00:50:46;1.83;;;0.50;;
16775;SDS011;8505;49.456;8.164;2023-01-13T00:53:21;2.47;;;0.50;;
16775;SDS011;8505;49.456;8.164;2023-01-13T00:55:50;3.17;;;0.60;;
16775;SDS011;8505;49.456;8.164;2023-01-13T00:58:25;1.92;;;0.50;;
16775;SDS011;8505;49.456;8.164;2023-01-13T01:00:52;1.77;;;0.50;;
16775;SDS011;8505;49.456;8.164;2023-01-13T01:03:20;2.28;;;0.68;;
16775;SDS011;8505;49.456;8.164;2023-01-13T01:05:48;2.80;;;0.50;;
16775;SDS011;8505;49.456;8.164;2023-01-13T01:08:15;2.85;;;0.50;;
16775;SDS011;8505;49.456;8.164;2023-01-13T01:10:43;2.20;;;0.50;;
16775;SDS011;8505;49.456;8.164;2023-01-13T01:13:12;1.83;;;0.60;;
16775;SDS011;8505;49.456;8.164;2023-01-13T01:15:42;2.53;;;0.50;;
16775;SDS011;8505;49.456;8.164;2023-01-13T01:18:10;1.55;;;0.40;;
16775;SDS011;8505;49.456;8.164;2023-01-13T01:20:38;2.08;;;0.47;;
16775;SDS011;8505;49.456;8.164;2023-01-13T01:23:05;2.13;;;0.50;;
16775;SDS011;8505;49.456;8.164;2023-01-13T01:25:33;2.03;;;0.50;;
16775;SDS011;8505;49.456;8.164;2023-01-13T01:28:00;1.20;;;0.40;;
16775;SDS011;8505;49.456;8.164;2023-01-13T01:30:29;0.83;;;0.40;;
16775;SDS011;8505;49.456;8.164;2023-01-13T01:32:57;1.43;;;0.50;;
16775;SDS011;8505;49.456;8.164;2023-01-13T01:35:24;1.92;;;0.50;;
16775;SDS011;8505;49.456;8.164;2023-01-13T01:37:52;1.20;;;0.50;;
16775;SDS011;8505;49.456;8.164;2023-01-13T01:40:20;2.17;;;0.40;;
16775;SDS011;8505;49.456;8.164;2023-01-13T01:42:47;1.52;;;0.40;;
16775;SDS011;8505;49.456;8.164;2023-01-13T01:45:34;2.05;;;0.45;;
16775;SDS011;8505;49.456;8.164;2023-01-13T01:48:02;1.40;;;0.45;;
16775;SDS011;8505;49.456;8.164;2023-01-13T01:50:31;2.50;;;0.40;;
16775;SDS011;8505;49.456;8.164;2023-01-13T01:53:01;1.42;;;0.38;;
16775;SDS011;8505;49.456;8.164;2023-01-13T01:55:36;2.95;;;0.55;;
16775;SDS011;8505;49.456;8.164;2023-01-13T01:58:05;0.90;;;0.40;;
16775;SDS011;8505;49.456;8.164;2023-01-13T02:00:38;1.05;;;0.50;;
16775;SDS011;8505;49.456;8.164;2023-01-13T02:03:06;1.50;;;0.40;;
16775;SDS011;8505;49.456;8.164;2023-01-13T02:05:35;1.47;;;0.50;;
16775;SDS011;8505;49.456;8.164;2023-01-13T02:08:04;3.50;;;0.55;;
16775;SDS011;8505;49.456;8.164;2023-01-13T02:10:34;0.95;;;0.40;;
16775;SDS011;8505;49.456;8.164;2023-01-13T02:13:03;1.30;;;0.30;;
16775;SDS011;8505;49.456;8.164;2023-01-13T02:15:34;1.52;;;0.50;;
16775;SDS011;8505;49.456;8.164;2023-01-13T02:18:11;1.08;;;0.30;;
16775;SDS011;8505;49.456;8.164;2023-01-13T02:21:00;0.40;;;0.20;;
16775;SDS011;8505;49.456;8.164;2023-01-13T02:27:01;1.77;;;0.32;;
16775;SDS011;8505;49.456;8.164;2023-01-13T02:30:01;1.40;;;0.40;;
16775;SDS011;8505;49.456;8.164;2023-01-13T02:32:56;0.43;;;0.20;;
16775;SDS011;8505;49.456;8.164;2023-01-13T02:35:31;0.90;;;0.30;;
16775;SDS011;8505;49.456;8.164;2023-01-13T02:38:05;1.05;;;0.32;;
16775;SDS011;8505;49.456;8.164;2023-01-13T02:40:38;0.90;;;0.30;;
16775;SDS011;8505;49.456;8.164;2023-01-13T02:43:13;0.57;;;0.20;;
16775;SDS011;8505;49.456;8.164;2023-01-13T02:46:06;0.57;;;0.20;;
16775;SDS011;8505;49.456;8.164;2023-01-13T02:48:37;1.05;;;0.30;;
16775;SDS011;8505;49.456;8.164;2023-01-13T02:51:09;1.27;;;0.30;;
16775;SDS011;8505;49.456;8.164;2023-01-13T02:53:40;0.93;;;0.40;;
16775;SDS011;8505;49.456;8.164;2023-01-13T02:56:12;0.47;;;0.30;;
16775;SDS011;8505;49.456;8.164;2023-01-13T02:58:43;1.00;;;0.20;;
16775;SDS011;8505;49.456;8.164;2023-01-13T03:01:14;0.60;;;0.10;;
16775;SDS011;8505;49.456;8.164;2023-01-13T03:03:43;0.25;;;0.20;;
16775;SDS011;8505;49.456;8.164;2023-01-13T03:06:18;1.13;;;0.30;;
16775;SDS011;8505;49.456;8.164;2023-01-13T03:08:59;0.70;;;0.20;;
16775;SDS011;8505;49.456;8.164;2023-01-13T03:11:33;0.22;;;0.20;;
16775;SDS011;8505;49.456;8.164;2023-01-13T03:14:10;0.53;;;0.20;;
16775;SDS011;8505;49.456;8.164;2023-01-13T03:17:04;1.15;;;0.28;;
16775;SDS011;8505;49.456;8.164;2023-01-13T03:19:43;1.13;;;0.25;;
16775;SDS011;8505;49.456;8.164;2023-01-13T03:22:19;1.60;;;0.30;;
16775;SDS011;8505;49.456;8.164;2023-01-13T03:24:54;1.02;;;0.28;;
16775;SDS011;8505;49.456;8.164;2023-01-13T03:27:29;0.63;;;0.22;;
16775;SDS011;8505;49.456;8.164;2023-01-13T03:29:59;0.50;;;0.30;;
16775;SDS011;8505;49.456;8.164;2023-01-13T03:32:35;1.02;;;0.30;;
16775;SDS011;8505;49.456;8.164;2023-01-13T03:35:07;0.80;;;0.20;;
16775;SDS011;8505;49.456;8.164;2023-01-13T03:37:38;1.50;;;0.40;;
16775;SDS011;8505;49.456;8.164;2023-01-13T03:40:14;0.47;;;0.20;;
16775;SDS011;8505;49.456;8.164;2023-01-13T03:42:45;0.70;;;0.20;;
16775;SDS011;8505;49.456;8.164;2023-01-13T03:45:33;1.10;;;0.32;;
16775;SDS011;8505;49.456;8.164;2023-01-13T03:48:04;1.00;;;0.30;;
16775;SDS011;8505;49.456;8.164;2023-01-13T03:50:34;0.77;;;0.25;;
16775;SDS011;8505;49.456;8.164;2023-01-13T03:53:08;0.40;;;0.27;;
16775;SDS011;8505;49.456;8.164;2023-01-13T03:55:40;0.80;;;0.30;;
16775;SDS011;8505;49.456;8.164;2023-01-13T03:58:13;1.35;;;0.40;;
16775;SDS011;8505;49.456;8.164;2023-01-13T04:00:45;1.00;;;0.20;;
16775;SDS011;8505;49.456;8.164;2023-01-13T04:03:19;1.43;;;0.30;;
16775;SDS011;8505;49.456;8.164;2023-01-13T04:05:54;0.90;;;0.40;;
16775;SDS011;8505;49.456;8.164;2023-01-13T04:08:29;1.50;;;0.40;;
16775;SDS011;8505;49.456;8.164;2023-01-13T04:10:59;2.00;;;0.30;;
16775;SDS011;8505;49.456;8.164;2023-01-13T04:13:32;2.17;;;0.40;;
16775;SDS011;8505;49.456;8.164;2023-01-13T04:16:04;1.25;;;0.30;;
16775;SDS011;8505;49.456;8.164;2023-01-13T04:18:36;1.13;;;0.30;;
16775;SDS011;8505;49.456;8.164;2023-01-13T04:21:05;0.70;;;0.22;;
16775;SDS011;8505;49.456;8.164;2023-01-13T04:23:33;0.52;;;0.40;;
16775;SDS011;8505;49.456;8.164;2023-01-13T04:26:01;1.35;;;0.30;;
16775;SDS011;8505;49.456;8.164;2023-01-13T04:28:29;0.68;;;0.32;;
16775;SDS011;8505;49.456;8.164;2023-01-13T04:30:58;2.00;;;0.47;;
16775;SDS011;8505;49.456;8.164;2023-01-13T04:33:26;0.77;;;0.30;;
16775;SDS011;8505;49.456;8.164;2023-01-13T04:35:55;1.90;;;0.30;;
16775;SDS011;8505;49.456;8.164;2023-01-13T04:38:22;1.60;;;0.32;;
16775;SDS011;8505;49.456;8.164;2023-01-13T04:40:50;2.00;;;0.30;;
16775;SDS011;8505;49.456;8.164;2023-01-13T04:43:17;1.20;;;0.40;;
16775;SDS011;8505;49.456;8.164;2023-01-13T04:45:45;1.45;;;0.40;;
16775;SDS011;8505;49.456;8.164;2023-01-13T04:48:13;1.67;;;0.30;;
16775;SDS011;8505;49.456;8.164;2023-01-13T04:50:41;1.30;;;0.47;;
16775;SDS011;8505;49.456;8.164;2023-01-13T04:53:10;1.35;;;0.30;;
16775;SDS011;8505;49.456;8.164;2023-01-13T04:55:38;1.50;;;0.40;;
16775;SDS011;8505;49.456;8.164;2023-01-13T04:58:06;1.08;;;0.30;;
16775;SDS011;8505;49.456;8.164;2023-01-13T05:00:36;1.37;;;0.40;;
16775;SDS011;8505;49.456;8.164;2023-01-13T05:03:04;0.88;;;0.30;;
16775;SDS011;8505;49.456;8.164;2023-01-13T05:05:32;1.73;;;0.40;;
16775;SDS011;8505;49.456;8.164;2023-01-13T05:08:00;1.30;;;0.30;;
16775;SDS011;8505;49.456;8.164;2023-01-13T05:10:29;0.70;;;0.30;;
16775;SDS011;8505;49.456;8.164;2023-01-13T05:12:56;0.50;;;0.20;;
16775;SDS011;8505;49.456;8.164;2023-01-13T05:15:42;0.50;;;0.40;;
16775;SDS011;8505;49.456;8.164;2023-01-13T05:18:28;1.38;;;0.30;;
16775;SDS011;8505;49.456;8.164;2023-01-13T05:20:56;1.40;;;0.35;;
16775;SDS011;8505;49.456;8.164;2023-01-13T05:23:24;1.20;;;0.40;;
16775;SDS011;8505;49.456;8.164;2023-01-13T05:26:10;0.60;;;0.30;;
16775;SDS011;8505;49.456;8.164;2023-01-13T05:28:38;1.63;;;0.30;;
16775;SDS011;8505;49.456;8.164;2023-01-13T05:31:06;0.95;;;0.30;;
16775;SDS011;8505;49.456;8.164;2023-01-13T05:33:34;0.65;;;0.30;;
16775;SDS011;8505;49.456;8.164;2023-01-13T05:36:02;1.10;;;0.30;;
16775;SDS011;8505;49.456;8.164;2023-01-13T05:38:31;1.35;;;0.40;;
16775;SDS011;8505;49.456;8.164;2023-01-13T05:40:58;1.05;;;0.40;;
16775;SDS011;8505;49.456;8.164;2023-01-13T05:43:45;0.80;;;0.40;;
16775;SDS011;8505;49.456;8.164;2023-01-13T05:46:13;2.05;;;0.50;;
16775;SDS011;8505;49.456;8.164;2023-01-13T05:48:43;0.65;;;0.30;;
16775;SDS011;8505;49.456;8.164;2023-01-13T05:51:11;1.70;;;0.50;;
16775;SDS011;8505;49.456;8.164;2023-01-13T05:53:39;1.73;;;0.43;;
16775;SDS011;8505;49.456;8.164;2023-01-13T05:56:07;2.25;;;0.63;;
16775;SDS011;8505;49.456;8.164;2023-01-13T05:58:35;1.77;;;0.70;;
16775;SDS011;8505;49.456;8.164;2023-01-13T06:01:05;3.30;;;0.95;;
16775;SDS011;8505;49.456;8.164;2023-01-13T06:03:34;3.20;;;1.30;;
16775;SDS011;8505;49.456;8.164;2023-01-13T06:06:03;1.25;;;0.60;;
16775;SDS011;8505;49.456;8.164;2023-01-13T06:08:31;2.35;;;0.85;;
16775;SDS011;8505;49.456;8.164;2023-01-13T06:10:59;1.77;;;0.50;;
16775;SDS011;8505;49.456;8.164;2023-01-13T06:13:26;1.70;;;0.50;;
16775;SDS011;8505;49.456;8.164;2023-01-13T06:15:54;0.98;;;0.50;;
16775;SDS011;8505;49.456;8.164;2023-01-13T06:18:25;1.47;;;0.40;;
16775;SDS011;8505;49.456;8.164;2023-01-13T06:20:53;2.00;;;0.40;;
16775;SDS011;8505;49.456;8.164;2023-01-13T06:23:21;0.90;;;0.30;;
16775;SDS011;8505;49.456;8.164;2023-01-13T06:25:50;0.40;;;0.20;;
16775;SDS011;8505;49.456;8.164;2023-01-13T06:28:23;0.57;;;0.20;;
16775;SDS011;8505;49.456;8.164;2023-01-13T06:30:51;0.85;;;0.20;;
16775;SDS011;8505;49.456;8.164;2023-01-13T06:33:22;0.57;;;0.10;;
16775;SDS011;8505;49.456;8.164;2023-01-13T06:35:56;0.30;;;0.20;;
16775;SDS011;8505;49.456;8.164;2023-01-13T06:38:28;2.10;;;0.30;;
16775;SDS011;8505;49.456;8.164;2023-01-13T06:41:03;1.30;;;0.20;;
16775;SDS011;8505;49.456;8.164;2023-01-13T06:43:33;0.20;;;0.20;;
16775;SDS011;8505;49.456;8.164;2023-01-13T06:46:00;0.70;;;0.30;;
16775;SDS011;8505;49.456;8.164;2023-01-13T06:48:30;0.77;;;0.20;;
16775;SDS011;8505;49.456;8.164;2023-01-13T06:51:01;0.75;;;0.30;;
16775;SDS011;8505;49.456;8.164;2023-01-13T06:53:29;1.00;;;0.47;;
16775;SDS011;8505;49.456;8.164;2023-01-13T06:55:57;1.83;;;0.75;;
16775;SDS011;8505;49.456;8.164;2023-01-13T06:58:24;1.60;;;0.63;;
16775;SDS011;8505;49.456;8.164;2023-01-13T07:00:52;1.30;;;0.40;;
16775;SDS011;8505;49.456;8.164;2023-01-13T07:03:20;1.40;;;0.45;;
16775;SDS011;8505;49.456;8.164;2023-01-13T07:05:53;0.90;;;0.40;;
16775;SDS011;8505;49.456;8.164;2023-01-13T07:08:22;2.13;;;0.30;;
16775;SDS011;8505;49.456;8.164;2023-01-13T07:10:50;0.65;;;0.28;;
16775;SDS011;8505;49.456;8.164;2023-01-13T07:13:18;0.88;;;0.30;;
16775;SDS011;8505;49.456;8.164;2023-01-13T07:16:03;1.13;;;0.30;;
16775;SDS011;8505;49.456;8.164;2023-01-13T07:18:33;1.60;;;0.50;;
16775;SDS011;8505;49.456;8.164;2023-01-13T07:21:03;1.10;;;0.20;;
16775;SDS011;8505;49.456;8.164;2023-01-13T07:23:32;1.85;;;0.35;;
16775;SDS011;8505;49.456;8.164;2023-01-13T07:26:01;1.55;;;0.50;;
16775;SDS011;8505;49.456;8.164;2023-01-13T07:28:30;2.63;;;0.60;;
16775;SDS011;8505;49.456;8.164;2023-01-13T07:30:59;2.25;;;0.50;;
16775;SDS011;8505;49.456;8.164;2023-01-13T07:33:27;3.03;;;0.40;;
16775;SDS011;8505;49.456;8.164;2023-01-13T07:35:58;2.58;;;0.40;;
16775;SDS011;8505;49.456;8.164;2023-01-13T07:38:29;3.97;;;0.60;;
16775;SDS011;8505;49.456;8.164;2023-01-13T07:40:58;2.13;;;0.55;;
16775;SDS011;8505;49.456;8.164;2023-01-13T07:43:47;3.70;;;0.70;;
16775;SDS011;8505;49.456;8.164;2023-01-13T07:46:14;4.22;;;0.55;;
16775;SDS011;8505;49.456;8.164;2023-01-13T07:48:42;4.03;;;0.70;;
16775;SDS011;8505;49.456;8.164;2023-01-13T07:51:10;4.40;;;0.70;;
16775;SDS011;8505;49.456;8.164;2023-01-13T07:53:39;6.22;;;0.70;;
16775;SDS011;8505;49.456;8.164;2023-01-13T07:56:07;2.42;;;0.60;;
16775;SDS011;8505;49.456;8.164;2023-01-13T07:58:36;3.88;;;0.63;;
16775;SDS011;8505;49.456;8.164;2023-01-13T08:01:06;2.88;;;0.50;;
16775;SDS011;8505;49.456;8.164;2023-01-13T08:03:35;2.53;;;0.50;;
16775;SDS011;8505;49.456;8.164;2023-01-13T08:06:02;5.13;;;0.70;;
16775;SDS011;8505;49.456;8.164;2023-01-13T08:08:30;5.38;;;0.80;;
16775;SDS011;8505;49.456;8.164;2023-01-13T08:11:00;3.85;;;0.60;;
16775;SDS011;8505;49.456;8.164;2023-01-13T08:13:28;3.42;;;0.70;;
16775;SDS011;8505;49.456;8.164;2023-01-13T08:15:58;1.55;;;0.47;;
16775;SDS011;8505;49.456;8.164;2023-01-13T08:18:27;2.33;;;0.50;;
16775;SDS011;8505;49.456;8.164;2023-01-13T08:20:54;4.88;;;0.77;;
16775;SDS011;8505;49.456;8.164;2023-01-13T08:23:22;2.80;;;0.60;;
16775;SDS011;8505;49.456;8.164;2023-01-13T08:25:49;5.07;;;1.57;;
16775;SDS011;8505;49.456;8.164;2023-01-13T08:28:18;2.78;;;0.60;;
16775;SDS011;8505;49.456;8.164;2023-01-13T08:30:49;2.28;;;0.70;;
16775;SDS011;8505;49.456;8.164;2023-01-13T08:33:18;4.43;;;0.90;;
16775;SDS011;8505;49.456;8.164;2023-01-13T08:35:46;3.47;;;0.70;;
16775;SDS011;8505;49.456;8.164;2023-01-13T08:38:14;5.43;;;0.93;;
16775;SDS011;8505;49.456;8.164;2023-01-13T08:40:41;5.40;;;0.90;;
16775;SDS011;8505;49.456;8.164;2023-01-13T08:43:09;4.53;;;0.70;;
16775;SDS011;8505;49.456;8.164;2023-01-13T08:45:38;4.75;;;0.70;;
16775;SDS011;8505;49.456;8.164;2023-01-13T08:48:05;5.50;;;0.85;;
16775;SDS011;8505;49.456;8.164;2023-01-13T08:50:34;5.03;;;0.77;;
16775;SDS011;8505;49.456;8.164;2023-01-13T08:53:02;4.85;;;0.63;;
16775;SDS011;8505;49.456;8.164;2023-01-13T08:55:29;2.75;;;0.70;;
16775;SDS011;8505;49.456;8.164;2023-01-13T08:57:57;5.18;;;1.00;;
16775;SDS011;8505;49.456;8.164;2023-01-13T09:00:41;4.18;;;0.90;;
16775;SDS011;8505;49.456;8.164;2023-01-13T09:03:09;5.70;;;0.70;;
16775;SDS011;8505;49.456;8.164;2023-01-13T09:05:37;6.30;;;1.00;;
16775;SDS011;8505;49.456;8.164;2023-01-13T09:08:05;5.53;;;1.00;;
16775;SDS011;8505;49.456;8.164;2023-01-13T09:10:33;3.97;;;1.00;;
16775;SDS011;8505;49.456;8.164;2023-01-13T09:13:02;5.05;;;0.80;;
16775;SDS011;8505;49.456;8.164;2023-01-13T09:15:38;5.65;;;0.90;;
16775;SDS011;8505;49.456;8.164;2023-01-13T09:18:08;6.00;;;0.80;;
16775;SDS011;8505;49.456;8.164;2023-01-13T09:20:37;7.28;;;1.00;;
16775;SDS011;8505;49.456;8.164;2023-01-13T09:23:05;5.80;;;1.20;;
16775;SDS011;8505;49.456;8.164;2023-01-13T09:25:36;3.25;;;0.68;;
16775;SDS011;8505;49.456;8.164;2023-01-13T09:28:04;6.25;;;1.00;;
16775;SDS011;8505;49.456;8.164;2023-01-13T09:30:33;5.50;;;1.00;;
16775;SDS011;8505;49.456;8.164;2023-01-13T09:33:01;4.43;;;1.10;;
16775;SDS011;8505;49.456;8.164;2023-01-13T09:35:48;4.80;;;0.90;;
16775;SDS011;8505;49.456;8.164;2023-01-13T09:38:15;5.60;;;1.13;;
16775;SDS011;8505;49.456;8.164;2023-01-13T09:40:43;7.93;;;1.23;;
16775;SDS011;8505;49.456;8.164;2023-01-13T09:43:16;6.60;;;1.10;;
16775;SDS011;8505;49.456;8.164;2023-01-13T09:46:03;5.88;;;1.17;;
16775;SDS011;8505;49.456;8.164;2023-01-13T09:48:57;5.53;;;1.00;;
16775;SDS011;8505;49.456;8.164;2023-01-13T09:51:30;4.63;;;0.93;;
16775;SDS011;8505;49.456;8.164;2023-01-13T09:54:06;6.85;;;1.25;;
16775;SDS011;8505;49.456;8.164;2023-01-13T09:56:41;4.97;;;1.00;;
16775;SDS011;8505;49.456;8.164;2023-01-13T09:59:09;7.45;;;1.40;;
16775;SDS011;8505;49.456;8.164;2023-01-13T10:01:40;5.90;;;1.27;;
16775;SDS011;8505;49.456;8.164;2023-01-13T10:04:18;5.45;;;1.15;;
16775;SDS011;8505;49.456;8.164;2023-01-13T10:06:48;10.02;;;1.73;;
16775;SDS011;8505;49.456;8.164;2023-01-13T10:09:20;9.15;;;1.40;;
16775;SDS011;8505;49.456;8.164;2023-01-13T10:11:53;8.40;;;1.60;;
16775;SDS011;8505;49.456;8.164;2023-01-13T10:14:42;7.38;;;1.50;;
16775;SDS011;8505;49.456;8.164;2023-01-13T10:17:17;7.10;;;1.20;;
16775;SDS011;8505;49.456;8.164;2023-01-13T10:19:54;7.30;;;1.70;;
16775;SDS011;8505;49.456;8.164;2023-01-13T10:22:40;10.02;;;1.95;;
16775;SDS011;8505;49.456;8.164;2023-01-13T10:25:20;7.93;;;1.50;;
16775;SDS011;8505;49.456;8.164;2023-01-13T10:27:54;8.05;;;1.52;;
16775;SDS011;8505;49.456;8.164;2023-01-13T10:30:32;10.18;;;1.95;;
16775;SDS011;8505;49.456;8.164;2023-01-13T10:33:08;9.00;;;1.60;;
16775;SDS011;8505;49.456;8.164;2023-01-13T10:35:47;7.07;;;1.60;;
16775;SDS011;8505;49.456;8.164;2023-01-13T10:38:22;8.60;;;1.48;;
16775;SDS011;8505;49.456;8.164;2023-01-13T10:40:52;7.72;;;1.50;;
16775;SDS011;8505;49.456;8.164;2023-01-13T10:43:21;11.07;;;1.90;;
16775;SDS011;8505;49.456;8.164;2023-01-13T10:45:59;9.20;;;1.45;;
16775;SDS011;8505;49.456;8.164;2023-01-13T10:48:33;11.98;;;2.10;;
16775;SDS011;8505;49.456;8.164;2023-01-13T10:51:09;9.32;;;1.73;;
16775;SDS011;8505;49.456;8.164;2023-01-13T10:53:49;7.68;;;2.28;;
16775;SDS011;8505;49.456;8.164;2023-01-13T10:56:18;9.95;;;1.70;;
16775;SDS011;8505;49.456;8.164;2023-01-13T10:58:48;11.45;;;2.30;;
16775;SDS011;8505;49.456;8.164;2023-01-13T11:01:18;10.30;;;1.30;;
16775;SDS011;8505;49.456;8.164;2023-01-13T11:03:51;8.70;;;1.60;;
16775;SDS011;8505;49.456;8.164;2023-01-13T11:06:20;11.40;;;1.65;;
16775;SDS011;8505;49.456;8.164;2023-01-13T11:08:52;10.25;;;1.70;;
16775;SDS011;8505;49.456;8.164;2023-01-13T11:11:24;9.60;;;1.40;;
16775;SDS011;8505;49.456;8.164;2023-01-13T11:13:54;7.50;;;1.15;;
16775;SDS011;8505;49.456;8.164;2023-01-13T11:16:41;8.32;;;1.50;;
16775;SDS011;8505;49.456;8.164;2023-01-13T11:19:19;9.75;;;1.88;;
16775;SDS011;8505;49.456;8.164;2023-01-13T11:21:51;10.45;;;1.70;;
16775;SDS011;8505;49.456;8.164;2023-01-13T11:24:25;9.40;;;1.60;;
16775;SDS011;8505;49.456;8.164;2023-01-13T11:26:58;12.60;;;1.63;;
16775;SDS011;8505;49.456;8.164;2023-01-13T11:29:30;8.13;;;1.15;;
16775;SDS011;8505;49.456;8.164;2023-01-13T11:32:08;9.95;;;1.70;;
16775;SDS011;8505;49.456;8.164;2023-01-13T11:34:38;7.70;;;1.55;;
16775;SDS011;8505;49.456;8.164;2023-01-13T11:37:08;11.50;;;1.77;;
16775;SDS011;8505;49.456;8.164;2023-01-13T11:39:45;11.85;;;2.00;;
16775;SDS011;8505;49.456;8.164;2023-01-13T11:42:19;9.18;;;1.70;;
16775;SDS011;8505;49.456;8.164;2023-01-13T11:44:58;8.85;;;1.40;;
16775;SDS011;8505;49.456;8.164;2023-01-13T11:47:30;8.95;;;1.10;;
16775;SDS011;8505;49.456;8.164;2023-01-13T11:50:00;9.02;;;1.67;;
16775;SDS011;8505;49.456;8.164;2023-01-13T11:52:31;8.13;;;1.37;;
16775;SDS011;8505;49.456;8.164;2023-01-13T11:55:17;8.88;;;1.90;;
16775;SDS011;8505;49.456;8.164;2023-01-13T11:57:56;10.68;;;1.80;;
16775;SDS011;8505;49.456;8.164;2023-01-13T12:00:46;10.00;;;1.70;;
16775;SDS011;8505;49.456;8.164;2023-01-13T12:03:29;9.30;;;1.63;;
16775;SDS011;8505;49.456;8.164;2023-01-13T12:06:05;10.80;;;1.83;;
16775;SDS011;8505;49.456;8.164;2023-01-13T12:08:44;8.50;;;1.40;;
16775;SDS011;8505;49.456;8.164;2023-01-13T12:11:46;6.82;;;1.35;;
16775;SDS011;8505;49.456;8.164;2023-01-13T12:14:44;8.50;;;1.50;;
16775;SDS011;8505;49.456;8.164;2023-01-13T12:17:30;8.07;;;1.58;;
16775;SDS011;8505;49.456;8.164;2023-01-13T12:20:07;7.47;;;1.10;;
16775;SDS011;8505;49.456;8.164;2023-01-13T12:22:52;8.85;;;1.40;;
16775;SDS011;8505;49.456;8.164;2023-01-13T12:25:26;10.50;;;1.40;;
16775;SDS011;8505;49.456;8.164;2023-01-13T12:28:01;6.47;;;1.30;;
16775;SDS011;8505;49.456;8.164;2023-01-13T12:30:34;7.65;;;1.42;;
16775;SDS011;8505;49.456;8.164;2023-01-13T12:33:09;10.13;;;1.60;;
16775;SDS011;8505;49.456;8.164;2023-01-13T12:35:45;9.35;;;1.67;;
16775;SDS011;8505;49.456;8.164;2023-01-13T12:38:23;6.88;;;1.27;;
16775;SDS011;8505;49.456;8.164;2023-01-13T12:41:01;10.93;;;1.70;;
16775;SDS011;8505;49.456;8.164;2023-01-13T12:43:42;7.72;;;1.17;;
16775;SDS011;8505;49.456;8.164;2023-01-13T12:49:25;6.88;;;1.23;;
16775;SDS011;8505;49.456;8.164;2023-01-13T12:52:02;8.33;;;1.53;;
16775;SDS011;8505;49.456;8.164;2023-01-13T12:57:28;10.77;;;1.50;;
16775;SDS011;8505;49.456;8.164;2023-01-13T13:05:59;8.32;;;2.13;;
16775;SDS011;8505;49.456;8.164;2023-01-13T13:08:38;8.50;;;1.40;;
16775;SDS011;8505;49.456;8.164;2023-01-13T13:11:37;9.25;;;1.70;;
16775;SDS011;8505;49.456;8.164;2023-01-13T13:17:38;8.85;;;1.63;;
16775;SDS011;8505;49.456;8.164;2023-01-13T13:23:26;6.82;;;1.52;;
16775;SDS011;8505;49.456;8.164;2023-01-13T13:25:59;5.50;;;0.90;;
16775;SDS011;8505;49.456;8.164;2023-01-13T13:28:30;6.80;;;1.23;;
16775;SDS011;8505;49.456;8.164;2023-01-13T13:36:49;12.07;;;2.38;;
16775;SDS011;8505;49.456;8.164;2023-01-13T13:39:27;14.13;;;3.80;;
16775;SDS011;8505;49.456;8.164;2023-01-13T13:42:15;9.40;;;2.03;;
16775;SDS011;8505;49.456;8.164;2023-01-13T13:45:10;11.50;;;2.15;;
16775;SDS011;8505;49.456;8.164;2023-01-13T13:50:48;11.87;;;1.80;;
16775;SDS011;8505;49.456;8.164;2023-01-13T13:53:22;9.05;;;1.50;;
16775;SDS011;8505;49.456;8.164;2023-01-13T13:55:52;6.50;;;1.30;;
16775;SDS011;8505;49.456;8.164;2023-01-13T13:58:22;4.83;;;1.00;;
16775;SDS011;8505;49.456;8.164;2023-01-13T14:00:51;6.93;;;1.17;;
16775;SDS011;8505;49.456;8.164;2023-01-13T14:03:21;6.50;;;1.23;;
16775;SDS011;8505;49.456;8.164;2023-01-13T14:05:54;6.50;;;1.08;;
16775;SDS011;8505;49.456;8.164;2023-01-13T14:08:25;5.30;;;0.80;;
16775;SDS011;8505;49.456;8.164;2023-01-13T14:10:55;6.45;;;1.38;;
16775;SDS011;8505;49.456;8.164;2023-01-13T14:13:23;7.35;;;1.42;;
16775;SDS011;8505;49.456;8.164;2023-01-13T14:15:54;10.10;;;2.47;;
16775;SDS011;8505;49.456;8.164;2023-01-13T14:18:23;5.75;;;1.50;;
16775;SDS011;8505;49.456;8.164;2023-01-13T14:20:54;10.65;;;1.70;;
16775;SDS011;8505;49.456;8.164;2023-01-13T14:23:26;10.73;;;2.20;;
16775;SDS011;8505;49.456;8.164;2023-01-13T14:25:59;8.13;;;1.27;;
16775;SDS011;8505;49.456;8.164;2023-01-13T14:28:29;15.27;;;3.97;;
16775;SDS011;8505;49.456;8.164;2023-01-13T14:31:00;9.98;;;1.90;;
16775;SDS011;8505;49.456;8.164;2023-01-13T14:33:31;9.63;;;1.95;;
16775;SDS011;8505;49.456;8.164;2023-01-13T14:41:51;10.48;;;1.92;;
16775;SDS011;8505;49.456;8.164;2023-01-13T14:44:21;10.32;;;1.70;;
16775;SDS011;8505;49.456;8.164;2023-01-13T14:46:52;6.22;;;1.23;;
16775;SDS011;8505;49.456;8.164;2023-01-13T14:49:22;10.55;;;1.90;;
16775;SDS011;8505;49.456;8.164;2023-01-13T14:52:03;5.57;;;1.10;;
16775;SDS011;8505;49.456;8.164;2023-01-13T14:54:37;7.28;;;1.52;;
16775;SDS011;8505;49.456;8.164;2023-01-13T14:57:11;6.70;;;1.20;;
16775;SDS011;8505;49.456;8.164;2023-01-13T14:59:41;7.50;;;1.33;;
16775;SDS011;8505;49.456;8.164;2023-01-13T15:05:27;12.37;;;2.20;;
16775;SDS011;8505;49.456;8.164;2023-01-13T15:08:02;10.23;;;1.88;;
16775;SDS011;8505;49.456;8.164;2023-01-13T15:10:34;8.57;;;1.50;;
16775;SDS011;8505;49.456;8.164;2023-01-13T15:13:19;8.18;;;1.30;;
16775;SDS011;8505;49.456;8.164;2023-01-13T15:15:52;9.07;;;1.52;;
16775;SDS011;8505;49.456;8.164;2023-01-13T15:18:22;11.55;;;1.73;;
16775;SDS011;8505;49.456;8.164;2023-01-13T15:20:50;8.50;;;1.60;;
16775;SDS011;8505;49.456;8.164;2023-01-13T15:23:19;10.63;;;1.80;;
16775;SDS011;8505;49.456;8.164;2023-01-13T15:25:47;8.15;;;2.10;;
16775;SDS011;8505;49.456;8.164;2023-01-13T15:28:16;10.13;;;1.60;;
16775;SDS011;8505;49.456;8.164;2023-01-13T15:30:46;9.20;;;1.63;;
16775;SDS011;8505;49.456;8.164;2023-01-13T15:33:15;8.18;;;1.80;;
16775;SDS011;8505;49.456;8.164;2023-01-13T15:35:43;8.68;;;1.95;;
16775;SDS011;8505;49.456;8.164;2023-01-13T15:38:14;12.20;;;1.60;;
16775;SDS011;8505;49.456;8.164;2023-01-13T15:40:45;11.90;;;3.10;;
16775;SDS011;8505;49.456;8.164;2023-01-13T15:43:15;10.33;;;2.13;;
16775;SDS011;8505;49.456;8.164;2023-01-13T15:46:01;32.58;;;12.40;;
16775;SDS011;8505;49.456;8.164;2023-01-13T15:48:49;13.87;;;2.90;;
16775;SDS011;8505;49.456;8.164;2023-01-13T15:51:20;11.23;;;3.10;;
16775;SDS011;8505;49.456;8.164;2023-01-13T15:53:47;11.57;;;2.28;;
16775;SDS011;8505;49.456;8.164;2023-01-13T15:56:18;19.45;;;2.30;;
16775;SDS011;8505;49.456;8.164;2023-01-13T15:58:49;21.40;;;6.95;;
16775;SDS011;8505;49.456;8.164;2023-01-13T16:01:16;20.50;;;7.18;;
16775;SDS011;8505;49.456;8.164;2023-01-13T16:03:44;12.97;;;3.23;;
16775;SDS011;8505;49.456;8.164;2023-01-13T16:06:14;13.85;;;2.40;;
16775;SDS011;8505;49.456;8.164;2023-01-13T16:08:44;13.00;;;2.97;;
16775;SDS011;8505;49.456;8.164;2023-01-13T16:11:12;17.13;;;5.67;;